createdAt,value
2023-05-10T00:01:21.769Z,10.35
2023-05-10T00:06:25.547Z,10.65
2023-05-10T00:11:29.250Z,9.10
2023-05-10T00:16:32.227Z,9.40
2023-05-10T00:21:36.073Z,13.48
2023-05-10T00:26:38.813Z,14.37
2023-05-10T00:31:42.106Z,17.20
2023-05-10T00:36:46.610Z,13.80
2023-05-10T00:41:49.420Z,14.23
2023-05-10T00:46:53.960Z,18.00
2023-05-10T00:51:57.005Z,15.27
2023-05-10T00:57:04.374Z,17.27
2023-05-10T01:02:08.079Z,14.65
2023-05-10T01:07:11.563Z,15.40
2023-05-10T01:12:14.303Z,12.53
2023-05-10T01:17:18.222Z,11.10
2023-05-10T01:22:41.931Z,20.20
2023-05-10T01:28:11.363Z,22.15
2023-05-10T01:33:29.367Z,17.77
2023-05-10T01:38:38.409Z,24.13
2023-05-10T01:43:49.902Z,28.10
2023-05-10T01:48:55.437Z,26.88
2023-05-10T01:54:03.613Z,24.33
2023-05-10T01:59:30.967Z,29.27
2023-05-10T02:04:36.312Z,31.95
2023-05-10T02:09:39.768Z,31.20
2023-05-10T02:14:43.093Z,21.60
2023-05-10T02:19:46.484Z,32.20
2023-05-10T02:24:50.738Z,33.08
2023-05-10T02:29:55.075Z,33.83
2023-05-10T02:34:58.766Z,30.70
2023-05-10T02:40:01.846Z,32.47
2023-05-10T02:45:21.102Z,27.10
2023-05-10T02:50:28.168Z,24.08
2023-05-10T02:55:39.211Z,28.08
2023-05-10T03:00:41.850Z,32.97
2023-05-10T03:05:44.556Z,32.13
2023-05-10T03:11:25.999Z,27.85
2023-05-10T03:16:34.737Z,25.15
2023-05-10T03:21:39.033Z,25.83
2023-05-10T03:26:46.217Z,27.92
2023-05-10T03:31:53.866Z,24.13
2023-05-10T03:36:56.919Z,28.73
2023-05-10T03:47:05.022Z,29.40
2023-05-10T03:52:08.061Z,35.75
2023-05-10T03:57:11.940Z,35.13
2023-05-10T04:02:15.632Z,27.88
2023-05-10T04:07:19.068Z,29.00
2023-05-10T04:12:21.680Z,24.75
2023-05-10T04:17:24.582Z,33.30
2023-05-10T04:22:28.782Z,28.20
2023-05-10T04:27:32.142Z,28.20
2023-05-10T04:32:34.929Z,30.80
2023-05-10T04:37:37.749Z,24.83
2023-05-10T04:42:42.350Z,30.83
2023-05-10T04:47:45.305Z,25.38
2023-05-10T04:52:47.912Z,31.38
2023-05-10T04:57:50.832Z,28.85
2023-05-10T05:02:53.645Z,33.67
2023-05-10T05:07:56.455Z,32.80
2023-05-10T05:12:59.328Z,32.10
2023-05-10T05:18:02.092Z,29.98
2023-05-10T05:23:05.930Z,35.83
2023-05-10T05:28:09.872Z,35.83
2023-05-10T05:33:13.066Z,34.67
2023-05-10T05:38:18.389Z,29.45
2023-05-10T05:43:20.960Z,26.73
2023-05-10T05:48:25.048Z,31.52
2023-05-10T05:53:27.816Z,31.05
2023-05-10T05:58:30.711Z,38.08
2023-05-10T06:03:34.292Z,35.17
2023-05-10T06:08:37.117Z,36.22
2023-05-10T06:13:41.218Z,41.25
2023-05-10T06:18:44.176Z,26.92
2023-05-10T06:23:46.998Z,38.45
2023-05-10T06:28:49.784Z,39.58
2023-05-10T06:33:54.746Z,31.20
2023-05-10T06:38:58.891Z,38.08
2023-05-10T06:44:01.657Z,36.65
2023-05-10T06:49:04.580Z,34.45
2023-05-10T06:54:07.959Z,31.13
2023-05-10T06:59:10.931Z,31.60
2023-05-10T07:04:14.111Z,36.30
2023-05-10T07:09:16.878Z,35.22
2023-05-10T07:14:19.599Z,32.90
2023-05-10T07:19:24.460Z,29.23
2023-05-10T07:24:27.668Z,34.90
2023-05-10T07:29:30.626Z,30.55
2023-05-10T07:34:33.274Z,25.80
2023-05-10T07:39:35.957Z,24.35
2023-05-10T07:44:39.240Z,27.40
2023-05-10T07:49:41.899Z,26.85
2023-05-10T07:54:45.643Z,17.90
2023-05-10T08:00:08.431Z,27.10
2023-05-10T08:05:17.266Z,24.88
2023-05-10T08:10:20.789Z,22.83
2023-05-10T08:15:23.524Z,21.85
2023-05-10T08:20:26.253Z,19.70
2023-05-10T08:25:28.938Z,20.60
2023-05-10T08:30:33.213Z,18.50
2023-05-10T08:35:37.190Z,17.25
2023-05-10T08:40:43.288Z,15.43
2023-05-10T08:45:48.938Z,17.38
2023-05-10T08:50:53.779Z,15.85
2023-05-10T08:55:56.624Z,16.70
2023-05-10T09:01:00.829Z,14.98
2023-05-10T09:06:04.709Z,16.70
2023-05-10T09:11:07.486Z,14.35
2023-05-10T09:16:21.357Z,13.75
2023-05-10T09:21:24.895Z,14.55
2023-05-10T09:26:27.830Z,15.05
2023-05-10T09:31:58.069Z,14.05
2023-05-10T09:37:04.997Z,11.73
2023-05-10T09:42:10.016Z,13.13
2023-05-10T09:47:19.379Z,13.88
2023-05-10T09:52:22.446Z,13.63
2023-05-10T09:57:27.083Z,12.65
2023-05-10T10:02:30.455Z,10.98
2023-05-10T10:07:34.559Z,10.38
2023-05-10T10:12:37.348Z,10.30
2023-05-10T10:17:40.442Z,10.02
2023-05-10T10:22:44.832Z,10.20
2023-05-10T10:27:53.251Z,9.05
2023-05-10T10:33:20.561Z,7.00
2023-05-10T10:39:00.477Z,7.07
2023-05-10T10:44:25.677Z,6.77
2023-05-10T10:49:28.893Z,7.32
2023-05-10T10:54:31.748Z,6.95
2023-05-10T10:59:35.426Z,6.82
2023-05-10T11:04:47.622Z,7.57
2023-05-10T11:09:50.513Z,7.55
2023-05-10T11:14:53.514Z,7.32
2023-05-10T11:20:12.248Z,7.53
2023-05-10T11:25:20.222Z,7.35
2023-05-10T11:30:22.919Z,7.30
2023-05-10T11:35:25.998Z,7.10
2023-05-10T11:40:28.649Z,6.68
2023-05-10T11:45:35.334Z,7.07
2023-05-10T11:50:37.935Z,8.18
2023-05-10T11:55:40.619Z,8.50
2023-05-10T12:00:45.799Z,7.95
2023-05-10T12:05:48.469Z,8.52
2023-05-10T12:10:51.232Z,7.93
2023-05-10T12:15:54.951Z,9.93
2023-05-10T12:21:04.597Z,9.45
2023-05-10T12:26:07.757Z,8.00
2023-05-10T12:31:10.441Z,8.13
2023-05-10T12:36:15.861Z,8.57
2023-05-10T12:41:19.362Z,9.77
2023-05-10T12:46:22.128Z,9.00
2023-05-10T12:51:27.414Z,7.93
2023-05-10T12:56:30.194Z,6.88
2023-05-10T13:01:32.808Z,9.05
2023-05-10T13:06:36.124Z,7.85
2023-05-10T13:11:38.760Z,7.73
2023-05-10T13:16:41.491Z,8.35
2023-05-10T13:21:45.458Z,7.57
2023-05-10T13:26:48.244Z,6.63
2023-05-10T13:31:51.255Z,6.90
2023-05-10T13:36:54.933Z,7.90
2023-05-10T13:41:57.585Z,6.00
2023-05-10T13:47:00.660Z,5.88
2023-05-10T13:52:07.792Z,6.30
2023-05-10T13:57:12.685Z,5.90
2023-05-10T14:02:15.301Z,4.95
2023-05-10T14:07:18.743Z,5.38
2023-05-10T14:12:21.342Z,5.28
2023-05-10T14:17:26.573Z,5.25
2023-05-10T14:22:29.137Z,4.20
2023-05-10T14:27:32.629Z,4.03
2023-05-10T14:32:35.334Z,7.78
2023-05-10T14:37:38.489Z,8.23
2023-05-10T14:42:41.063Z,8.77
2023-05-10T14:47:46.977Z,9.15
2023-05-10T14:52:50.337Z,9.00
2023-05-10T14:57:55.519Z,8.00
2023-05-10T15:02:58.588Z,6.22
2023-05-10T15:13:24.046Z,7.97
2023-05-10T15:18:26.888Z,8.70
2023-05-10T15:23:31.000Z,7.30
2023-05-10T15:33:38.387Z,7.32
2023-05-10T15:43:46.784Z,8.40
2023-05-10T15:48:49.919Z,8.18
2023-05-10T15:54:05.327Z,10.40
2023-05-10T15:59:13.153Z,9.90
2023-05-10T16:04:16.405Z,12.13
2023-05-10T16:09:19.060Z,11.40
2023-05-10T16:14:26.407Z,12.30
2023-05-10T16:19:31.415Z,11.00
2023-05-10T16:24:34.084Z,9.65
2023-05-10T16:29:38.317Z,9.38
2023-05-10T16:34:41.102Z,12.05
2023-05-10T16:39:44.545Z,11.10
2023-05-10T16:44:50.559Z,11.60
2023-05-10T16:49:53.234Z,10.85
2023-05-10T16:54:56.888Z,12.07
2023-05-10T16:59:59.958Z,9.55
2023-05-10T17:05:03.156Z,10.98
2023-05-10T17:10:06.678Z,10.07
2023-05-10T17:15:10.824Z,9.40
2023-05-10T17:20:13.874Z,9.65
2023-05-10T17:25:17.076Z,9.30
2023-05-10T17:30:26.078Z,11.67
2023-05-10T17:35:30.702Z,11.57
2023-05-10T17:40:33.951Z,10.82
2023-05-10T17:45:36.934Z,9.40
2023-05-10T17:50:43.497Z,10.38
2023-05-10T17:55:47.135Z,12.20
2023-05-10T18:00:51.162Z,10.00
2023-05-10T18:05:55.426Z,13.25
2023-05-10T18:10:58.439Z,11.35
2023-05-10T18:16:01.250Z,9.90
2023-05-10T18:21:04.159Z,10.43
2023-05-10T18:26:08.504Z,13.52
2023-05-10T18:31:14.038Z,11.25
2023-05-10T18:36:17.300Z,10.98
2023-05-10T18:41:21.397Z,14.73
2023-05-10T18:46:24.298Z,10.90
2023-05-10T18:51:29.657Z,10.30
2023-05-10T18:56:32.437Z,10.07
2023-05-10T19:01:35.551Z,10.20
2023-05-10T19:06:42.031Z,9.40
2023-05-10T19:11:44.785Z,10.25
2023-05-10T19:16:48.372Z,10.10
2023-05-10T19:21:51.376Z,9.80
2023-05-10T19:26:56.225Z,9.77
2023-05-10T19:31:59.119Z,8.80
2023-05-10T19:37:01.832Z,9.73
2023-05-10T19:42:05.433Z,9.88
2023-05-10T19:47:09.316Z,11.13
2023-05-10T19:52:12.534Z,10.43
2023-05-10T19:57:15.650Z,10.07
2023-05-10T20:02:18.322Z,13.60
2023-05-10T20:07:22.096Z,14.43
2023-05-10T20:12:27.419Z,10.43
2023-05-10T20:17:30.202Z,14.95
2023-05-10T20:22:32.890Z,11.80
2023-05-10T20:27:35.665Z,13.20
2023-05-10T20:32:38.982Z,11.20
2023-05-10T20:37:41.726Z,13.85
2023-05-10T20:42:47.954Z,11.05
2023-05-10T20:47:50.703Z,10.38
2023-05-10T20:52:53.638Z,15.77
2023-05-10T20:57:56.292Z,13.40
2023-05-10T21:02:59.085Z,12.20
2023-05-10T21:08:02.021Z,11.48
2023-05-10T21:13:05.034Z,9.73
2023-05-10T21:18:07.895Z,12.85
2023-05-10T21:23:10.589Z,13.10
2023-05-10T21:28:13.169Z,14.48
2023-05-10T21:33:15.906Z,11.90
2023-05-10T21:38:24.719Z,12.15
2023-05-10T21:43:28.482Z,12.60
2023-05-10T21:48:31.424Z,15.53
2023-05-10T21:53:35.907Z,14.07
2023-05-10T21:58:39.259Z,15.13
2023-05-10T22:03:43.630Z,17.77
2023-05-10T22:08:46.393Z,18.48
2023-05-10T22:13:49.577Z,14.48
2023-05-10T22:18:54.196Z,17.08
2023-05-10T22:28:59.511Z,15.90
2023-05-10T22:34:02.373Z,18.27
2023-05-10T22:39:07.308Z,18.77
2023-05-10T22:44:12.374Z,19.67
2023-05-10T22:54:17.483Z,13.73
2023-05-10T22:59:20.577Z,12.52
2023-05-10T23:04:23.294Z,14.85
2023-05-10T23:09:25.980Z,14.27
2023-05-10T23:14:29.289Z,14.57
2023-05-10T23:19:33.179Z,17.83
2023-05-10T23:24:36.171Z,13.32
2023-05-10T23:29:40.020Z,12.65
2023-05-10T23:34:42.829Z,11.25
2023-05-10T23:39:45.691Z,10.85
2023-05-10T23:44:48.383Z,12.38
2023-05-10T23:49:51.084Z,11.73
2023-05-10T23:54:55.389Z,9.48
2023-05-10T23:59:58.141Z,13.95
